Time;durP1;ratioP1;P1;durP2;ratioP2;P2;SDS_P1;SDS_P2;PMS_P1;PMS_P2;Temp;Humidity;BMP_temperature;BMP_pressure;BME280_temperature;BME280_humidity;BME280_pressure;Samples;Min_cycle;Max_cycle;Signal;HPM_P1;HPM_P2
2022/06/19 00:01:06;;;;;;;2.72;1.00;;;;;;;12.94;83.42;101303.69;5027946;28;20363;-76
2022/06/19 00:03:35;;;;;;;6.05;1.10;;;;;;;12.93;83.79;101292.22;5012637;28;20033;-78
2022/06/19 00:06:01;;;;;;;4.72;1.20;;;;;;;12.93;83.95;101291.34;5012511;28;20440;-77
2022/06/19 00:08:28;;;;;;;3.67;0.93;;;;;;;12.94;83.68;101280.66;5010879;28;20132;-77
2022/06/19 00:10:54;;;;;;;4.13;1.02;;;;;;;13.00;84.08;101280.34;5016243;28;20085;-76
2022/06/19 00:13:19;;;;;;;3.47;1.02;;;;;;;13.04;83.85;101284.56;4992413;28;20030;-76
2022/06/19 00:15:45;;;;;;;3.10;0.80;;;;;;;13.09;84.64;101288.81;5012774;28;20041;-76
2022/06/19 00:18:11;;;;;;;2.78;0.75;;;;;;;13.12;83.87;101294.84;5012296;28;20038;-77
2022/06/19 00:20:36;;;;;;;6.18;1.20;;;;;;;13.21;83.96;101292.66;5012031;28;20123;-77
2022/06/19 00:23:02;;;;;;;4.60;0.93;;;;;;;13.24;83.43;101303.16;5012819;28;20119;-76
2022/06/19 00:25:27;;;;;;;1.88;0.60;;;;;;;13.24;83.58;101325.25;5011883;28;20030;-75
2022/06/19 00:27:54;;;;;;;4.78;1.10;;;;;;;13.24;83.09;101335.91;5009691;28;20095;-77
2022/06/19 00:30:20;;;;;;;3.33;0.95;;;;;;;13.22;83.35;101331.59;5012305;28;20038;-76
2022/06/19 00:32:46;;;;;;;4.20;1.13;;;;;;;13.23;82.66;101328.03;4996956;28;20084;-76
2022/06/19 00:35:11;;;;;;;2.45;0.98;;;;;;;13.22;83.06;101335.13;5012253;28;20034;-76
2022/06/19 00:37:37;;;;;;;4.68;0.98;;;;;;;13.23;83.30;101344.81;5026368;28;20056;-76
2022/06/19 00:40:05;;;;;;;2.58;1.00;;;;;;;13.21;83.17;101362.66;5024410;28;20643;-77
2022/06/19 00:42:31;;;;;;;2.55;0.80;;;;;;;13.24;83.83;101366.97;5026358;28;20037;-74
2022/06/19 00:44:56;;;;;;;3.90;1.00;;;;;;;13.23;83.67;101378.53;5026579;28;20037;-76
2022/06/19 00:47:25;;;;;;;6.35;0.90;;;;;;;13.25;83.88;101404.09;5008964;28;20105;-78
2022/06/19 00:49:54;;;;;;;1.73;0.90;;;;;;;13.25;84.52;101440.47;5026206;28;20034;-77
2022/06/19 00:52:23;;;;;;;2.25;0.80;;;;;;;13.25;83.81;101469.72;4997765;28;20026;-77
2022/06/19 00:54:58;;;;;;;4.43;1.20;;;;;;;13.27;85.00;101475.81;5010873;28;20041;-76
2022/06/19 00:57:26;;;;;;;4.40;0.98;;;;;;;13.29;84.72;101466.00;5009127;28;20133;-76
2022/06/19 01:00:04;;;;;;;2.88;0.90;;;;;;;13.31;85.63;101454.31;5008867;28;20029;-78
2022/06/19 01:02:30;;;;;;;2.97;1.20;;;;;;;13.32;84.84;101439.25;4992070;28;20033;-79
2022/06/19 01:04:56;;;;;;;4.97;1.17;;;;;;;13.34;85.36;101452.47;5008091;28;20059;-78
2022/06/19 01:07:22;;;;;;;3.33;1.05;;;;;;;13.35;85.72;101456.84;5004964;28;20026;-77
2022/06/19 01:09:51;;;;;;;8.55;1.40;;;;;;;13.34;86.16;101431.19;5006175;28;20038;-77
2022/06/19 01:12:17;;;;;;;6.53;0.95;;;;;;;13.34;85.59;101393.97;5011944;28;20036;-77
2022/06/19 01:14:44;;;;;;;5.32;1.25;;;;;;;13.34;85.37;101375.34;5026163;28;20044;-78
2022/06/19 01:17:11;;;;;;;6.32;1.20;;;;;;;13.34;85.40;101373.53;5010912;28;20055;-77
2022/06/19 01:19:41;;;;;;;4.38;1.05;;;;;;;13.33;85.67;101361.19;5010843;28;20040;-78
2022/06/19 01:22:25;;;;;;;7.40;1.35;;;;;;;13.34;86.11;101351.44;5025516;28;20100;-77
2022/06/19 01:25:18;;;;;;;8.32;1.38;;;;;;;13.34;87.56;101349.59;5009500;28;20060;-75
2022/06/19 01:30:47;;;;;;;4.50;1.08;;;;;;;13.34;86.59;101357.59;5022834;28;20037;-77
2022/06/19 01:33:16;;;;;;;3.78;0.95;;;;;;;13.38;86.39;101355.63;5010898;28;20052;-74
2022/06/19 01:35:43;;;;;;;6.40;1.88;;;;;;;13.38;87.89;101348.53;5006636;28;20041;-76
2022/06/19 01:38:12;;;;;;;4.40;1.33;;;;;;;13.38;87.97;101332.56;5008428;28;20030;-73
2022/06/19 01:40:40;;;;;;;5.45;1.35;;;;;;;13.37;86.88;101314.91;5013815;28;20499;-76
2022/06/19 01:43:05;;;;;;;3.65;0.95;;;;;;;13.35;86.96;101300.81;5007359;28;20025;-78
2022/06/19 01:45:31;;;;;;;4.72;1.05;;;;;;;13.35;86.71;101299.97;5025232;28;20039;-75
2022/06/19 01:47:57;;;;;;;3.17;0.80;;;;;;;13.32;87.46;101279.69;5008665;28;20037;-77
2022/06/19 01:50:25;;;;;;;9.60;1.10;;;;;;;13.34;87.75;101272.50;5008740;28;20034;-73
2022/06/19 01:52:54;;;;;;;4.43;1.08;;;;;;;13.32;86.73;101282.34;5013140;28;20095;-75
2022/06/19 01:55:20;;;;;;;3.60;0.95;;;;;;;13.30;87.16;101298.38;5009265;28;20123;-76
2022/06/19 01:57:50;;;;;;;4.38;1.10;;;;;;;13.30;86.73;101305.50;5009622;28;20044;-77
2022/06/19 02:00:24;;;;;;;4.60;1.15;;;;;;;13.28;87.05;101310.03;5025092;28;20030;-77
2022/06/19 02:02:54;;;;;;;6.75;1.45;;;;;;;13.25;86.73;101311.03;5024849;28;20132;-76
2022/06/19 02:05:20;;;;;;;2.67;0.80;;;;;;;13.23;86.70;101322.69;5009585;28;20138;-73
2022/06/19 02:07:46;;;;;;;7.45;1.27;;;;;;;13.23;86.67;101328.03;5010207;28;20447;-76
2022/06/19 02:10:11;;;;;;;5.57;1.45;;;;;;;13.22;86.88;101321.81;5024964;28;20030;-76
2022/06/19 02:12:37;;;;;;;5.07;1.00;;;;;;;13.23;86.55;101317.38;5008770;28;20052;-74
2022/06/19 02:15:07;;;;;;;4.40;0.80;;;;;;;13.21;86.47;101330.75;4995441;28;20060;-77
2022/06/19 02:17:39;;;;;;;4.10;1.00;;;;;;;13.21;86.25;101332.53;5014645;28;20440;-73
2022/06/19 02:20:06;;;;;;;6.60;1.40;;;;;;;13.20;86.07;101328.16;5015268;28;20587;-75
2022/06/19 02:22:32;;;;;;;3.72;0.98;;;;;;;13.19;86.04;101327.31;5017438;28;20034;-77
2022/06/19 02:24:57;;;;;;;6.20;1.23;;;;;;;13.20;85.44;101338.78;5016575;28;20033;-77
2022/06/19 02:27:26;;;;;;;9.73;1.23;;;;;;;13.21;85.61;101372.41;5016948;28;20048;-78
2022/06/19 02:29:51;;;;;;;6.78;1.08;;;;;;;13.20;85.90;101376.00;5032371;28;20597;-77
2022/06/19 02:32:22;;;;;;;4.03;1.10;;;;;;;13.21;86.26;101361.78;5013926;28;20033;-77
2022/06/19 02:34:50;;;;;;;3.88;1.13;;;;;;;13.22;86.14;101358.19;5017077;28;20040;-76
2022/06/19 02:37:22;;;;;;;4.72;1.08;;;;;;;13.24;86.03;101357.16;5016891;28;20096;-76
2022/06/19 02:40:22;;;;;;;5.93;1.10;;;;;;;13.24;86.71;101311.97;5002961;28;20025;-76
2022/06/19 02:42:49;;;;;;;4.05;1.20;;;;;;;13.24;86.04;101300.50;4996832;28;20154;-76
2022/06/19 02:45:27;;;;;;;5.07;1.42;;;;;;;13.22;87.34;101275.75;5011776;28;20040;-76
2022/06/19 02:47:54;;;;;;;3.45;0.98;;;;;;;13.23;86.73;101227.84;5016433;28;20926;-75
2022/06/19 02:50:30;;;;;;;8.63;1.20;;;;;;;13.25;86.74;101140.03;5016554;28;20029;-78
2022/06/19 02:52:55;;;;;;;8.10;1.10;;;;;;;13.24;86.40;101136.50;5019754;28;20480;-76
2022/06/19 02:55:22;;;;;;;7.32;1.20;;;;;;;13.24;86.74;101133.00;5014398;28;20072;-77
2022/06/19 02:57:48;;;;;;;3.05;0.88;;;;;;;13.23;86.84;101149.91;5003464;28;20116;-77
2022/06/19 03:00:20;;;;;;;5.28;0.93;;;;;;;13.23;87.81;101161.38;5016265;28;20053;-76
2022/06/19 03:02:48;;;;;;;6.00;1.02;;;;;;;13.24;87.30;101164.91;5012196;28;20083;-77
2022/06/19 03:05:18;;;;;;;9.55;1.40;;;;;;;13.18;88.41;101201.50;5014942;28;20036;-76
2022/06/19 03:07:44;;;;;;;6.65;1.17;;;;;;;13.12;89.22;101216.88;4998863;28;20170;-78
2022/06/19 03:10:10;;;;;;;8.10;1.75;;;;;;;13.00;90.78;101179.38;5013628;28;20041;-80
2022/06/19 03:12:36;;;;;;;5.97;1.10;;;;;;;12.85;91.50;101234.13;5017825;28;20111;-79
2022/06/19 03:15:01;;;;;;;3.83;1.42;;;;;;;12.70;91.26;101246.34;5016470;28;20496;-78
2022/06/19 03:17:26;;;;;;;5.55;0.82;;;;;;;12.55;93.97;101200.16;5016257;28;20530;-78
2022/06/19 03:19:52;;;;;;;4.90;1.27;;;;;;;12.46;93.50;101216.50;5016300;28;20033;-77
2022/06/19 03:22:18;;;;;;;5.18;1.38;;;;;;;12.31;94.47;101149.09;4995863;28;20080;-78
2022/06/19 03:24:44;;;;;;;5.30;1.75;;;;;;;12.17;97.48;101091.34;5015989;28;20032;-77
2022/06/19 03:27:11;;;;;;;7.97;1.40;;;;;;;12.13;100.00;101100.38;4996791;28;20089;-77
2022/06/19 03:29:36;;;;;;;2.95;0.95;;;;;;;12.03;99.97;101140.63;5011767;28;20549;-76
2022/06/19 03:32:02;;;;;;;4.43;1.13;;;;;;;11.98;100.00;101139.09;5016376;28;20067;-77
2022/06/19 03:34:28;;;;;;;5.47;1.48;;;;;;;11.97;100.00;101148.84;5012702;28;20037;-77
2022/06/19 03:36:55;;;;;;;5.30;1.45;;;;;;;11.92;100.00;101157.03;5012929;28;20092;-77
2022/06/19 03:39:21;;;;;;;3.95;1.25;;;;;;;11.87;100.00;101171.44;4996224;28;20030;-77
2022/06/19 03:41:46;;;;;;;6.53;1.42;;;;;;;11.82;100.00;101172.50;5012689;28;20034;-76
2022/06/19 03:44:12;;;;;;;6.93;1.27;;;;;;;11.81;100.00;101191.13;5012636;28;20030;-76
2022/06/19 03:46:37;;;;;;;5.72;1.15;;;;;;;11.79;100.00;101199.19;5012511;28;20674;-76
2022/06/19 03:49:03;;;;;;;6.78;1.25;;;;;;;11.84;100.00;101198.09;5013135;28;20148;-76
2022/06/19 03:51:29;;;;;;;11.85;1.52;;;;;;;11.84;100.00;101191.00;5012060;28;20088;-76
2022/06/19 03:53:55;;;;;;;8.85;1.50;;;;;;;11.85;100.00;101168.84;5012189;28;20038;-77
2022/06/19 03:56:31;;;;;;;3.72;1.20;;;;;;;11.85;100.00;101158.25;5008878;28;20046;-76
2022/06/19 03:58:57;;;;;;;9.25;1.40;;;;;;;11.80;100.00;101150.50;5028148;28;20375;-76
2022/06/19 04:01:30;;;;;;;5.93;1.10;;;;;;;11.79;100.00;101143.47;5027836;28;20034;-77
2022/06/19 04:03:56;;;;;;;3.97;1.10;;;;;;;11.71;100.00;101121.72;4997807;28;20051;-77
2022/06/19 04:06:27;;;;;;;7.47;1.48;;;;;;;11.58;100.00;101094.91;5027212;28;20037;-76
2022/06/19 04:08:53;;;;;;;8.50;1.23;;;;;;;11.50;100.00;101132.38;5014910;28;20072;-77
2022/06/19 04:11:20;;;;;;;5.90;1.27;;;;;;;11.41;100.00;101127.50;5012477;28;20416;-77
2022/06/19 04:13:46;;;;;;;2.78;1.08;;;;;;;11.36;100.00;101124.19;5012008;28;20239;-76
2022/06/19 04:16:19;;;;;;;5.47;1.15;;;;;;;11.33;100.00;101124.31;5012078;28;20041;-77
2022/06/19 04:18:45;;;;;;;8.77;1.60;;;;;;;11.23;100.00;101153.03;5012284;28;20045;-77
2022/06/19 04:21:16;;;;;;;6.00;1.15;;;;;;;11.12;100.00;101178.19;5024844;28;20048;-76
2022/06/19 04:23:43;;;;;;;6.18;1.30;;;;;;;11.06;100.00;101188.19;5012239;28;20033;-76
2022/06/19 04:26:14;;;;;;;5.47;1.35;;;;;;;11.00;100.00;101191.94;5007410;28;20072;-75
2022/06/19 04:28:40;;;;;;;3.92;1.13;;;;;;;10.93;100.00;101201.06;5027613;28;20559;-76
2022/06/19 04:31:06;;;;;;;4.53;1.00;;;;;;;10.91;100.00;101201.16;4994651;28;20886;-76
2022/06/19 04:33:35;;;;;;;4.70;0.88;;;;;;;10.88;100.00;101193.31;5012691;28;20164;-76
2022/06/19 04:36:00;;;;;;;3.22;1.08;;;;;;;10.86;100.00;101189.88;5011560;28;20640;-75
2022/06/19 04:38:28;;;;;;;3.97;0.90;;;;;;;10.79;100.00;101176.00;5012207;28;20041;-74
2022/06/19 04:40:55;;;;;;;10.20;1.42;;;;;;;10.78;100.00;101194.63;5011939;28;20083;-75
2022/06/19 04:43:20;;;;;;;3.63;1.30;;;;;;;10.78;100.00;101200.78;5008860;28;20048;-76
2022/06/19 04:45:46;;;;;;;8.75;1.60;;;;;;;10.82;100.00;101204.16;5010400;28;20037;-76
2022/06/19 04:48:13;;;;;;;5.90;1.35;;;;;;;10.87;100.00;101194.25;5011804;28;20044;-77
2022/06/19 04:50:39;;;;;;;4.90;1.35;;;;;;;10.91;100.00;101179.97;5011719;28;20578;-77
2022/06/19 04:53:05;;;;;;;5.78;1.00;;;;;;;10.98;100.00;101162.88;5022772;28;20110;-76
2022/06/19 04:55:30;;;;;;;7.43;1.60;;;;;;;11.05;100.00;101171.41;5012048;28;20112;-76
2022/06/19 04:58:03;;;;;;;8.38;1.38;;;;;;;11.05;100.00;101166.13;5011740;28;20038;-76
2022/06/19 05:00:30;;;;;;;8.02;1.40;;;;;;;11.13;100.00;101152.56;5027287;28;20111;-76
2022/06/19 05:02:55;;;;;;;7.75;1.98;;;;;;;11.18;100.00;101158.53;5014400;28;20037;-76
2022/06/19 05:05:22;;;;;;;6.60;1.50;;;;;;;11.25;100.00;101132.59;5024703;28;20550;-76
2022/06/19 05:07:48;;;;;;;9.20;1.70;;;;;;;11.28;100.00;101122.72;5008635;28;20115;-76
2022/06/19 05:10:14;;;;;;;6.38;1.70;;;;;;;11.30;100.00;101116.50;5009531;28;20041;-77
2022/06/19 05:12:40;;;;;;;8.90;1.92;;;;;;;11.23;100.00;101102.66;4994658;28;20049;-76
2022/06/19 05:15:06;;;;;;;9.60;1.48;;;;;;;11.25;100.00;101136.13;5009141;28;20251;-75
2022/06/19 05:17:32;;;;;;;11.38;1.92;;;;;;;11.19;100.00;101160.25;5014081;28;20029;-76
2022/06/19 05:19:58;;;;;;;9.63;2.05;;;;;;;11.17;100.00;101171.84;5014393;28;20041;-76
2022/06/19 05:22:24;;;;;;;7.65;1.70;;;;;;;11.11;100.00;101183.56;5010610;28;20043;-76
2022/06/19 05:24:49;;;;;;;7.13;1.42;;;;;;;11.05;100.00;101183.81;5010009;28;20048;-76
2022/06/19 05:27:15;;;;;;;9.88;1.80;;;;;;;10.98;100.00;101178.78;5011025;28;20045;-76
2022/06/19 05:29:41;;;;;;;7.82;1.40;;;;;;;10.95;100.00;101181.53;5008835;28;20644;-76
2022/06/19 05:32:07;;;;;;;4.03;1.30;;;;;;;10.92;100.00;101181.69;5008956;28;20667;-75
2022/06/19 05:34:34;;;;;;;4.40;1.25;;;;;;;10.85;100.00;101172.25;5006136;28;20037;-74
2022/06/19 05:37:00;;;;;;;2.85;1.30;;;;;;;10.81;100.00;101170.66;5026038;28;20037;-76
2022/06/19 05:39:26;;;;;;;7.65;1.55;;;;;;;10.81;100.00;101174.19;4994465;28;21487;-76
2022/06/19 05:41:52;;;;;;;7.30;1.60;;;;;;;10.83;100.00;101182.03;4979884;28;20531;-76
2022/06/19 05:44:18;;;;;;;4.78;1.13;;;;;;;10.79;100.00;101191.06;5024660;28;20038;-75
2022/06/19 05:46:47;;;;;;;6.95;1.40;;;;;;;10.76;100.00;101193.81;5010310;28;20046;-76
2022/06/19 05:49:12;;;;;;;7.90;1.90;;;;;;;10.77;100.00;101196.41;5008620;28;20029;-76
2022/06/19 05:51:38;;;;;;;6.00;0.93;;;;;;;10.78;100.00;101197.28;5010696;28;21439;-76
2022/06/19 05:54:03;;;;;;;4.75;1.42;;;;;;;10.81;100.00;101191.84;5023639;28;20729;-76
2022/06/19 05:56:29;;;;;;;3.53;1.30;;;;;;;10.84;100.00;101170.53;5010007;28;20042;-76
2022/06/19 05:58:54;;;;;;;8.98;1.23;;;;;;;10.91;100.00;101148.16;5010510;28;20484;-76
2022/06/19 06:01:21;;;;;;;4.38;1.52;;;;;;;10.96;100.00;101117.03;5010283;28;20469;-75
2022/06/19 06:03:47;;;;;;;4.38;1.15;;;;;;;11.00;100.00;101129.22;5025358;28;20033;-76
2022/06/19 06:06:22;;;;;;;9.90;1.63;;;;;;;11.06;100.00;101140.50;5010638;28;20030;-76
2022/06/19 06:08:48;;;;;;;4.50;1.25;;;;;;;11.11;100.00;101130.56;5009856;28;20038;-76
2022/06/19 06:11:14;;;;;;;4.65;1.10;;;;;;;11.15;100.00;101126.84;5010621;28;20030;-75
2022/06/19 06:13:40;;;;;;;6.32;1.10;;;;;;;11.24;100.00;101130.88;4993064;28;20664;-75
2022/06/19 06:16:05;;;;;;;3.22;1.00;;;;;;;11.28;100.00;101154.53;4992921;28;20683;-76
2022/06/19 06:18:31;;;;;;;2.75;1.10;;;;;;;11.27;100.00;101170.50;5010286;28;20120;-76
2022/06/19 06:21:10;;;;;;;2.30;1.27;;;;;;;11.27;100.00;101158.13;5008049;28;20048;-76
2022/06/19 06:23:35;;;;;;;3.33;1.17;;;;;;;11.32;100.00;101154.41;5009493;28;20033;-76
2022/06/19 06:26:10;;;;;;;4.68;1.00;;;;;;;11.32;100.00;101155.25;5010105;28;20088;-75
2022/06/19 06:28:39;;;;;;;4.57;1.10;;;;;;;11.39;100.00;101169.13;4992978;28;20854;-76
2022/06/19 06:31:05;;;;;;;1.58;0.88;;;;;;;11.46;100.00;101173.22;5025939;28;20693;-75
2022/06/19 06:33:30;;;;;;;9.82;1.13;;;;;;;11.49;100.00;101172.22;5024960;28;20121;-76
2022/06/19 06:35:56;;;;;;;6.60;1.10;;;;;;;11.54;100.00;101170.22;5009834;28;20743;-77
2022/06/19 06:38:23;;;;;;;8.02;1.17;;;;;;;11.55;100.00;101171.94;5024748;28;20042;-77
2022/06/19 06:40:49;;;;;;;2.53;1.02;;;;;;;11.58;100.00;101173.59;5013535;28;20477;-77
2022/06/19 06:43:14;;;;;;;4.15;1.25;;;;;;;11.59;100.00;101192.09;4992944;28;20392;-76
2022/06/19 06:45:40;;;;;;;3.90;1.30;;;;;;;11.64;100.00;101218.41;5010030;28;20044;-76
2022/06/19 06:48:06;;;;;;;6.35;1.35;;;;;;;11.66;100.00;101248.38;4992073;28;21444;-76
2022/06/19 06:50:31;;;;;;;4.80;1.02;;;;;;;11.67;100.00;101260.72;5024616;28;21472;-76
2022/06/19 06:52:57;;;;;;;2.80;0.90;;;;;;;11.67;100.00;101255.41;5009365;28;20389;-77
2022/06/19 06:55:23;;;;;;;6.28;1.33;;;;;;;11.68;100.00;101234.09;5007692;28;20033;-75
2022/06/19 06:57:48;;;;;;;3.70;0.90;;;;;;;11.70;100.00;101239.34;4990916;28;20053;-75
2022/06/19 07:00:17;;;;;;;1.67;0.93;;;;;;;11.74;100.00;101235.66;5007383;28;20064;-75
2022/06/19 07:02:43;;;;;;;3.40;0.77;;;;;;;11.76;100.00;101227.63;5010720;28;20045;-75
2022/06/19 07:05:09;;;;;;;1.85;0.80;;;;;;;11.79;100.00;101252.22;5013249;28;20443;-75
2022/06/19 07:07:34;;;;;;;3.40;1.20;;;;;;;11.82;100.00;101260.03;5013371;28;20053;-74
2022/06/19 07:10:00;;;;;;;2.95;0.95;;;;;;;11.82;100.00;101252.09;4995798;28;20030;-75
2022/06/19 07:12:25;;;;;;;3.72;1.17;;;;;;;11.86;100.00;101249.28;5028187;28;20156;-75
2022/06/19 07:14:51;;;;;;;3.97;1.33;;;;;;;11.87;100.00;101259.00;5013236;28;20107;-76
2022/06/19 07:17:16;;;;;;;4.57;1.10;;;;;;;11.90;100.00;101272.09;5016376;28;20060;-75
2022/06/19 07:19:42;;;;;;;4.22;0.90;;;;;;;11.92;100.00;101275.53;5012711;28;20037;-75
2022/06/19 07:22:11;;;;;;;4.32;0.85;;;;;;;11.90;100.00;101282.72;5013104;28;20079;-76
2022/06/19 07:24:37;;;;;;;3.78;1.00;;;;;;;11.91;100.00;101289.75;4982964;28;20033;-75
2022/06/19 07:27:02;;;;;;;3.72;1.10;;;;;;;11.88;100.00;101284.59;5013308;28;20188;-75
2022/06/19 07:29:28;;;;;;;2.35;0.70;;;;;;;11.85;100.00;101290.88;4995985;28;20056;-75
2022/06/19 07:31:54;;;;;;;3.05;0.80;;;;;;;11.87;100.00;101301.44;5013757;28;20447;-75
2022/06/19 07:34:20;;;;;;;4.57;0.82;;;;;;;11.88;100.00;101300.50;5013107;28;20068;-76
2022/06/19 07:36:45;;;;;;;2.92;0.93;;;;;;;11.88;100.00;101304.00;5013102;28;20033;-75
2022/06/19 07:39:11;;;;;;;0.85;0.63;;;;;;;11.89;100.00;101315.47;5013777;28;20075;-75
2022/06/19 07:41:36;;;;;;;4.38;1.27;;;;;;;11.87;100.00;101315.53;5013029;28;20033;-75
2022/06/19 07:44:02;;;;;;;4.88;0.98;;;;;;;11.89;100.00;101324.31;5012874;28;20034;-76
2022/06/19 07:46:27;;;;;;;5.10;0.80;;;;;;;11.91;100.00;101330.41;5026417;28;20033;-76
2022/06/19 07:51:38;;;;;;;4.40;0.90;;;;;;;11.98;100.00;101354.88;5012360;28;20026;-75
2022/06/19 07:54:03;;;;;;;3.85;1.02;;;;;;;11.99;100.00;101353.94;5012726;28;20069;-75
2022/06/19 07:56:29;;;;;;;3.38;0.70;;;;;;;12.04;100.00;101367.06;5026809;28;20051;-75
2022/06/19 07:58:55;;;;;;;2.55;0.80;;;;;;;12.09;100.00;101373.00;5010644;28;20060;-75
2022/06/19 08:01:20;;;;;;;3.08;0.80;;;;;;;12.13;100.00;101381.72;5013028;28;20040;-75
2022/06/19 08:03:46;;;;;;;2.92;0.77;;;;;;;12.11;100.00;101363.22;5012289;28;20033;-75
2022/06/19 08:06:17;;;;;;;2.67;0.68;;;;;;;12.18;100.00;101366.44;5012837;28;20065;-75
2022/06/19 08:08:43;;;;;;;3.40;0.90;;;;;;;12.22;100.00;101366.25;5012814;28;20045;-75
2022/06/19 08:11:10;;;;;;;2.60;0.73;;;;;;;12.23;100.00;101359.16;5013175;28;20588;-75
2022/06/19 08:13:36;;;;;;;2.20;0.70;;;;;;;12.27;100.00;101357.22;5012207;28;20218;-74
2022/06/19 08:16:08;;;;;;;1.75;0.80;;;;;;;12.30;100.00;101365.91;5010010;28;20134;-75
2022/06/19 08:18:34;;;;;;;1.70;0.80;;;;;;;12.33;100.00;101373.72;5023613;28;20037;-75
2022/06/19 08:21:01;;;;;;;1.45;0.65;;;;;;;12.35;100.00;101377.19;4992806;28;20338;-75
2022/06/19 08:23:27;;;;;;;5.53;1.20;;;;;;;12.35;100.00;101374.53;5012359;28;20033;-75
2022/06/19 08:25:52;;;;;;;2.22;0.82;;;;;;;12.36;100.00;101359.47;5027019;28;20533;-73
2022/06/19 08:28:42;;;;;;;1.88;1.17;;;;;;;12.36;100.00;101359.47;5012223;28;20081;-75
2022/06/19 08:31:08;;;;;;;4.53;0.60;;;;;;;12.38;100.00;101359.41;5009492;28;20119;-74
2022/06/19 08:33:33;;;;;;;2.33;0.70;;;;;;;12.38;100.00;101356.75;5007353;28;20370;-74
2022/06/19 08:36:03;;;;;;;2.30;0.80;;;;;;;12.39;100.00;101363.78;4997103;28;20155;-75
2022/06/19 08:38:32;;;;;;;1.67;0.80;;;;;;;12.41;100.00;101365.44;5026960;28;20033;-75
2022/06/19 08:41:16;;;;;;;4.20;0.68;;;;;;;12.47;100.00;101358.97;5026587;28;20785;-75
2022/06/19 08:44:09;;;;;;;3.05;0.98;;;;;;;12.50;100.00;101350.88;4994760;28;20051;-74
2022/06/19 08:46:53;;;;;;;4.25;0.77;;;;;;;12.56;100.00;101355.03;5009596;28;20037;-74
2022/06/19 08:49:32;;;;;;;2.55;0.75;;;;;;;12.60;100.00;101348.66;5009853;28;20041;-74
2022/06/19 08:52:36;;;;;;;4.13;1.10;;;;;;;12.67;100.00;101346.56;5011228;28;20026;-74
2022/06/19 08:55:07;;;;;;;2.33;0.80;;;;;;;12.77;100.00;101343.41;5011695;28;20049;-74
2022/06/19 08:57:42;;;;;;;3.90;0.80;;;;;;;12.87;100.00;101343.00;5011445;28;20033;-75
2022/06/19 09:00:07;;;;;;;3.35;0.90;;;;;;;12.92;100.00;101341.00;5011415;28;20068;-74
2022/06/19 09:02:41;;;;;;;1.48;0.60;;;;;;;12.94;100.00;101343.56;5011745;28;20124;-75
2022/06/19 09:05:36;;;;;;;1.23;0.68;;;;;;;12.97;100.00;101325.66;5007080;28;20044;-74
2022/06/19 09:08:29;;;;;;;3.13;1.02;;;;;;;13.05;100.00;101333.28;5023540;28;20040;-75
2022/06/19 09:11:05;;;;;;;1.45;0.60;;;;;;;13.10;100.00;101331.28;5011714;28;20041;-74
2022/06/19 09:13:45;;;;;;;2.10;0.70;;;;;;;13.17;100.00;101322.06;5008697;28;20059;-75
2022/06/19 09:16:19;;;;;;;4.47;0.82;;;;;;;13.21;100.00;101311.25;5009533;28;20486;-74
2022/06/19 09:18:58;;;;;;;5.75;0.90;;;;;;;13.25;100.00;101305.72;5010645;28;20045;-75
2022/06/19 09:21:51;;;;;;;2.58;0.90;;;;;;;13.27;100.00;101300.31;5006677;28;20088;-74
2022/06/19 09:24:52;;;;;;;1.38;0.70;;;;;;;13.31;100.00;101300.09;5008821;28;20049;-74
2022/06/19 09:27:34;;;;;;;2.72;0.65;;;;;;;13.37;100.00;101293.63;5007849;28;20052;-74
2022/06/19 09:30:04;;;;;;;1.65;0.70;;;;;;;13.40;100.00;101296.13;5009234;28;20046;-73
2022/06/19 09:32:34;;;;;;;0.60;0.60;;;;;;;13.48;100.00;101300.22;5010041;28;20026;-74
2022/06/19 09:35:05;;;;;;;1.50;0.75;;;;;;;13.54;100.00;101303.44;5011053;28;20581;-74
2022/06/19 09:37:46;;;;;;;1.33;0.73;;;;;;;13.57;100.00;101297.13;4994547;28;20037;-74
2022/06/19 09:40:25;;;;;;;2.22;0.80;;;;;;;13.59;100.00;101295.22;5011145;28;20036;-73
2022/06/19 09:42:56;;;;;;;2.42;0.70;;;;;;;13.68;100.00;101292.09;5009945;28;20033;-74
2022/06/19 09:45:29;;;;;;;2.22;0.73;;;;;;;13.80;100.00;101290.63;5009162;28;20064;-74
2022/06/19 09:48:06;;;;;;;1.20;0.77;;;;;;;13.89;99.54;101289.25;5012972;28;20030;-74
2022/06/19 09:50:58;;;;;;;0.70;0.60;;;;;;;13.91;98.27;101282.06;5010927;28;20180;-74
2022/06/19 09:53:41;;;;;;;1.58;0.80;;;;;;;13.96;98.98;101281.81;5009942;28;20056;-75
2022/06/19 09:56:13;;;;;;;4.35;0.95;;;;;;;14.01;99.14;101289.56;5008463;28;20037;-72
2022/06/19 09:59:07;;;;;;;3.20;0.73;;;;;;;13.98;98.51;101275.47;5010245;28;20043;-75
2022/06/19 10:01:32;;;;;;;;;;;;;;;13.92;98.09;101273.13;5008828;28;20033;-75
2022/06/19 10:04:02;;;;;;;1.55;0.70;;;;;;;13.90;98.71;101276.81;5010569;28;19991;-75
2022/06/19 10:06:40;;;;;;;2.55;1.00;;;;;;;14.01;98.59;101276.25;5026164;28;20112;-75
2022/06/19 10:09:33;;;;;;;3.53;0.73;;;;;;;14.23;98.57;101274.13;4992945;28;20103;-75
2022/06/19 10:12:00;;;;;;;1.25;0.52;;;;;;;14.37;97.95;101284.06;5010259;28;20076;-75
2022/06/19 10:14:36;;;;;;;1.67;0.70;;;;;;;14.52;96.61;101285.03;5008628;28;20040;-74
2022/06/19 10:17:13;;;;;;;2.20;0.63;;;;;;;14.61;96.05;101285.44;5010582;28;20124;-75
2022/06/19 10:19:48;;;;;;;2.45;0.80;;;;;;;14.56;95.05;101279.50;5022369;28;20094;-75
2022/06/19 10:22:32;;;;;;;5.30;0.68;;;;;;;14.56;94.26;101280.38;4995632;28;20033;-74
2022/06/19 10:25:26;;;;;;;1.75;0.77;;;;;;;14.65;93.78;101279.88;5010386;28;20494;-74
2022/06/19 10:28:00;;;;;;;2.33;0.63;;;;;;;14.65;94.53;101276.31;5010137;28;20041;-74
2022/06/19 10:30:43;;;;;;;1.92;1.00;;;;;;;14.65;94.23;101260.34;5010253;28;20038;-75
2022/06/19 10:33:47;;;;;;;2.33;0.80;;;;;;;14.71;94.55;101264.47;5013047;28;20041;-74
2022/06/19 10:36:25;;;;;;;1.75;0.65;;;;;;;14.76;93.74;101268.63;4992805;28;20664;-75
2022/06/19 10:39:09;;;;;;;2.25;0.70;;;;;;;14.79;92.01;101281.78;5016414;28;20046;-75
2022/06/19 10:42:01;;;;;;;1.63;0.70;;;;;;;14.80;91.31;101294.16;5010040;28;20128;-74
2022/06/19 10:45:04;;;;;;;1.95;0.80;;;;;;;14.80;91.40;101286.19;4996363;28;20041;-75
2022/06/19 10:47:58;;;;;;;1.35;0.80;;;;;;;14.86;90.15;101284.13;5014228;28;20029;-74
2022/06/19 10:50:39;;;;;;;1.02;0.68;;;;;;;14.80;90.49;101272.84;5026041;28;20113;-74
2022/06/19 10:53:11;;;;;;;3.33;0.70;;;;;;;14.78;91.19;101269.38;5027451;28;20110;-74
2022/06/19 10:55:39;;;;;;;2.40;0.90;;;;;;;14.76;91.34;101268.63;5014128;28;20049;-74
2022/06/19 10:58:10;;;;;;;3.55;0.80;;;;;;;14.76;91.20;101263.31;5011047;28;20052;-74
2022/06/19 11:00:36;;;;;;;1.92;0.70;;;;;;;14.78;91.67;101260.56;5013576;28;20041;-74
2022/06/19 11:05:56;;;;;;;1.35;0.52;;;;;;;14.64;89.17;101272.81;4998553;28;20037;-74
2022/06/19 11:08:22;;;;;;;2.25;0.93;;;;;;;14.59;89.56;101282.03;5016356;28;20046;-74
2022/06/19 11:10:52;;;;;;;1.42;0.80;;;;;;;14.59;89.60;101285.53;5016726;28;20032;-74
2022/06/19 11:13:18;;;;;;;0.75;0.50;;;;;;;14.58;89.57;101291.81;5011641;28;20037;-74
2022/06/19 11:15:48;;;;;;;2.80;0.60;;;;;;;14.57;89.64;101291.88;4998493;28;20036;-74
2022/06/19 11:18:24;;;;;;;3.10;0.70;;;;;;;14.52;87.02;101298.34;5010718;28;20025;-74
2022/06/19 11:20:53;;;;;;;1.80;0.70;;;;;;;14.48;88.23;101307.44;5011403;28;20038;-75
2022/06/19 11:23:27;;;;;;;0.60;0.60;;;;;;;14.51;88.88;101315.25;5012861;28;20037;-74
2022/06/19 11:26:07;;;;;;;2.22;0.60;;;;;;;14.55;87.98;101323.09;5013090;28;20045;-74
2022/06/19 11:28:41;;;;;;;1.77;0.57;;;;;;;14.59;87.82;101324.66;5013321;28;20041;-75
2022/06/19 11:31:17;;;;;;;0.88;0.60;;;;;;;14.61;86.46;101330.75;5012844;28;20034;-75
2022/06/19 11:33:42;;;;;;;2.88;0.80;;;;;;;14.61;87.69;101342.25;5012980;28;20056;-75
2022/06/19 11:36:23;;;;;;;1.52;0.70;;;;;;;14.63;87.48;101343.03;5012510;28;20025;-74
2022/06/19 11:38:50;;;;;;;1.15;0.70;;;;;;;14.64;86.25;101343.88;5013423;28;20041;-75
2022/06/19 11:41:21;;;;;;;1.90;0.60;;;;;;;14.68;85.42;101340.13;5012888;28;20044;-74
2022/06/19 11:44:24;;;;;;;1.60;0.60;;;;;;;14.72;85.66;101340.81;5008391;28;20044;-74